createdAt,value
2022-09-03T00:02:22.733Z,70.95
2022-09-03T00:05:05.475Z,70.85
2022-09-03T00:07:37.845Z,70.42
2022-09-03T00:10:16.245Z,70.91
2022-09-03T00:12:46.897Z,70.38
2022-09-03T00:15:18.643Z,70.69
2022-09-03T00:17:52.243Z,70.26
2022-09-03T00:20:33.554Z,70.44
2022-09-03T00:23:06.154Z,70.17
2022-09-03T00:25:52.627Z,70.31
2022-09-03T00:28:26.095Z,70.55
2022-09-03T00:31:22.119Z,70.75
2022-09-03T00:33:53.089Z,70.45
2022-09-03T00:36:44.264Z,70.30
2022-09-03T00:39:21.662Z,69.84
2022-09-03T00:42:20.443Z,69.72
2022-09-03T00:45:09.474Z,68.99
2022-09-03T00:48:12.351Z,68.67
2022-09-03T00:51:17.122Z,68.76
2022-09-03T00:54:18.440Z,68.88
2022-09-03T00:57:12.024Z,69.49
2022-09-03T00:59:59.174Z,69.38
2022-09-03T01:02:35.673Z,69.64
2022-09-03T01:05:27.683Z,69.41
2022-09-03T01:08:04.018Z,69.56
2022-09-03T01:10:46.339Z,69.69
2022-09-03T01:13:24.945Z,69.96
2022-09-03T01:16:11.005Z,70.19
2022-09-03T01:18:46.069Z,70.24
2022-09-03T01:21:48.854Z,70.29
2022-09-03T01:24:47.449Z,70.33
2022-09-03T01:27:32.551Z,70.88
2022-09-03T01:30:04.762Z,71.08
2022-09-03T01:32:38.122Z,71.73
2022-09-03T01:35:29.867Z,72.57
2022-09-03T01:38:15.492Z,72.33
2022-09-03T01:41:20.461Z,72.44
2022-09-03T01:43:53.953Z,72.48
2022-09-03T01:46:30.501Z,72.67
2022-09-03T01:49:22.874Z,73.16
2022-09-03T01:52:16.415Z,72.93
2022-09-03T01:55:07.350Z,72.99
2022-09-03T01:57:57.141Z,73.00
2022-09-03T02:00:26.213Z,72.94
2022-09-03T02:02:54.016Z,73.15
2022-09-03T02:05:27.959Z,72.98
2022-09-03T02:07:55.081Z,72.83
2022-09-03T02:10:30.623Z,72.23
2022-09-03T02:13:13.868Z,72.28
2022-09-03T02:15:43.628Z,72.70
2022-09-03T02:18:17.344Z,72.43
2022-09-03T02:20:47.085Z,72.60
2022-09-03T02:23:15.185Z,73.42
2022-09-03T02:25:48.389Z,73.43
2022-09-03T02:28:17.042Z,73.53
2022-09-03T02:30:45.285Z,73.48
2022-09-03T02:33:13.173Z,73.47
2022-09-03T02:35:41.395Z,73.69
2022-09-03T02:38:14.373Z,73.36
2022-09-03T02:40:41.628Z,73.53
2022-09-03T02:43:19.150Z,74.02
2022-09-03T02:45:49.563Z,74.13
2022-09-03T02:48:23.421Z,74.69
2022-09-03T02:50:50.709Z,75.08
2022-09-03T02:53:18.061Z,75.17
2022-09-03T02:55:45.507Z,75.40
2022-09-03T02:58:12.983Z,75.51
2022-09-03T03:00:40.314Z,75.46
2022-09-03T03:03:07.542Z,75.45
2022-09-03T03:05:58.318Z,75.52
2022-09-03T03:08:29.271Z,75.99
2022-09-03T03:10:59.018Z,76.02
2022-09-03T03:13:27.705Z,76.04
2022-09-03T03:16:03.623Z,76.04
2022-09-03T03:18:30.818Z,75.98
2022-09-03T03:20:58.429Z,75.95
2022-09-03T03:23:25.526Z,76.29
2022-09-03T03:25:52.737Z,76.75
2022-09-03T03:28:20.490Z,76.15
2022-09-03T03:30:49.226Z,75.99
2022-09-03T03:33:16.482Z,76.04
2022-09-03T03:35:43.936Z,75.80
2022-09-03T03:38:11.234Z,76.04
2022-09-03T03:40:39.460Z,76.24
2022-09-03T03:43:06.725Z,77.02
2022-09-03T03:45:33.886Z,76.01
2022-09-03T03:48:01.070Z,76.52
2022-09-03T03:50:28.424Z,76.01
2022-09-03T03:52:56.481Z,75.91
2022-09-03T03:55:23.794Z,76.14
2022-09-03T03:57:54.508Z,77.10
2022-09-03T04:00:21.902Z,76.99
2022-09-03T04:02:52.223Z,77.61
2022-09-03T04:05:23.223Z,77.64
2022-09-03T04:07:51.267Z,77.86
2022-09-03T04:10:18.464Z,77.65
2022-09-03T04:12:46.240Z,77.72
2022-09-03T04:15:13.559Z,77.73
2022-09-03T04:17:40.809Z,77.52
2022-09-03T04:20:08.178Z,77.61
2022-09-03T04:22:35.452Z,78.09
2022-09-03T04:25:02.584Z,77.91
2022-09-03T04:27:29.870Z,78.22
2022-09-03T04:29:56.989Z,78.14
2022-09-03T04:32:42.624Z,78.16
2022-09-03T04:35:10.161Z,78.59
2022-09-03T04:37:40.751Z,78.49
2022-09-03T04:40:08.438Z,77.84
2022-09-03T04:42:35.566Z,78.15
2022-09-03T04:45:02.810Z,77.87
2022-09-03T04:47:30.145Z,77.48
2022-09-03T04:49:57.734Z,77.73
2022-09-03T04:52:25.494Z,75.94
2022-09-03T04:54:52.981Z,76.14
2022-09-03T04:57:20.247Z,76.20
2022-09-03T04:59:47.611Z,76.19
2022-09-03T05:02:15.798Z,76.23
2022-09-03T05:04:43.236Z,75.28
2022-09-03T05:07:10.534Z,75.23
2022-09-03T05:09:37.806Z,74.73
2022-09-03T05:12:05.233Z,74.21
2022-09-03T05:14:32.825Z,74.11
2022-09-03T05:17:00.050Z,75.11
2022-09-03T05:19:27.406Z,75.54
2022-09-03T05:21:54.513Z,76.59
2022-09-03T05:24:21.621Z,76.88
2022-09-03T05:26:49.186Z,76.20
2022-09-03T05:29:16.355Z,76.50
2022-09-03T05:31:43.705Z,75.19
2022-09-03T05:34:16.327Z,74.83
2022-09-03T05:36:44.064Z,73.20
2022-09-03T05:39:11.179Z,71.90
2022-09-03T05:41:38.529Z,72.24
2022-09-03T05:44:06.300Z,72.32
2022-09-03T05:46:34.367Z,72.41
2022-09-03T05:49:03.275Z,72.28
2022-09-03T05:51:31.343Z,70.67
2022-09-03T05:53:59.450Z,67.08
2022-09-03T05:56:28.625Z,66.51
2022-09-03T05:59:00.285Z,64.99
2022-09-03T06:01:33.730Z,64.14
2022-09-03T06:04:04.560Z,65.02
2022-09-03T06:06:33.905Z,65.63
2022-09-03T06:09:07.082Z,65.61
2022-09-03T06:11:37.443Z,66.04
2022-09-03T06:14:06.972Z,66.39
2022-09-03T06:16:39.970Z,65.83
2022-09-03T06:19:09.823Z,63.36
2022-09-03T06:21:42.962Z,58.36
2022-09-03T06:24:26.220Z,60.23
2022-09-03T06:26:54.001Z,59.83
2022-09-03T06:29:21.145Z,60.75
2022-09-03T06:31:51.664Z,61.11
2022-09-03T06:34:19.173Z,58.51
2022-09-03T06:36:46.462Z,59.58
2022-09-03T06:39:13.772Z,59.71
2022-09-03T06:41:40.947Z,59.54
2022-09-03T06:44:12.155Z,58.79
2022-09-03T06:46:42.864Z,56.56
2022-09-03T06:49:11.819Z,54.25
2022-09-03T06:51:40.007Z,53.22
2022-09-03T06:54:09.892Z,53.27
2022-09-03T06:56:40.643Z,51.86
2022-09-03T06:59:13.120Z,50.80
2022-09-03T07:01:44.640Z,49.79
2022-09-03T07:04:13.726Z,50.01
2022-09-03T07:06:42.859Z,49.41
2022-09-03T07:09:12.080Z,49.08
2022-09-03T07:11:47.395Z,49.72
2022-09-03T07:14:16.716Z,49.61
2022-09-03T07:16:44.033Z,49.40
2022-09-03T07:19:13.634Z,49.46
2022-09-03T07:21:45.240Z,50.06
2022-09-03T07:24:15.669Z,51.14
2022-09-03T07:26:44.905Z,50.82
2022-09-03T07:29:13.318Z,51.34
2022-09-03T07:31:42.230Z,50.87
2022-09-03T07:34:12.774Z,51.57
2022-09-03T07:36:43.255Z,51.87
2022-09-03T07:39:12.704Z,51.34
2022-09-03T07:41:43.531Z,52.57
2022-09-03T07:44:11.157Z,53.35
2022-09-03T07:46:39.329Z,51.78
2022-09-03T07:49:06.839Z,50.88
2022-09-03T07:51:37.304Z,52.31
2022-09-03T07:54:07.874Z,51.11
2022-09-03T07:56:36.122Z,50.72
2022-09-03T07:59:04.773Z,51.92
2022-09-03T08:01:33.196Z,51.62
2022-09-03T08:04:02.080Z,52.50
2022-09-03T08:06:30.939Z,53.50
2022-09-03T08:09:04.897Z,53.24
2022-09-03T08:11:36.347Z,53.56
2022-09-03T08:14:07.732Z,54.65
2022-09-03T08:16:43.471Z,55.13
2022-09-03T08:19:12.265Z,55.81
2022-09-03T08:21:42.415Z,56.48
2022-09-03T08:24:11.286Z,57.06
2022-09-03T08:26:45.274Z,57.65
2022-09-03T08:29:13.669Z,58.89
2022-09-03T08:31:41.048Z,59.48
2022-09-03T08:34:08.756Z,60.16
2022-09-03T08:36:38.266Z,61.40
2022-09-03T08:39:10.967Z,61.67
2022-09-03T08:41:53.573Z,63.44
2022-09-03T08:44:30.064Z,63.99
2022-09-03T08:46:58.020Z,63.97
2022-09-03T08:49:52.617Z,63.96
2022-09-03T08:52:42.018Z,64.39
2022-09-03T08:55:20.975Z,64.29
2022-09-03T08:57:51.674Z,63.73
2022-09-03T09:00:19.623Z,63.46
2022-09-03T09:03:04.784Z,63.82
2022-09-03T09:05:46.390Z,63.27
2022-09-03T09:08:59.264Z,63.30
2022-09-03T09:11:35.050Z,63.31
2022-09-03T09:14:27.299Z,64.22
2022-09-03T09:17:13.585Z,63.17
2022-09-03T09:20:02.375Z,64.45
2022-09-03T09:22:41.576Z,63.77
2022-09-03T09:25:15.440Z,63.72
2022-09-03T09:27:59.958Z,64.53
2022-09-03T09:30:29.450Z,64.21
2022-09-03T09:32:57.673Z,63.96
2022-09-03T09:35:24.920Z,63.65
2022-09-03T09:37:52.231Z,63.99
2022-09-03T09:40:34.107Z,63.59
2022-09-03T09:43:14.246Z,63.79
2022-09-03T09:45:46.306Z,64.00
2022-09-03T09:48:34.330Z,64.52
2022-09-03T09:51:11.407Z,64.21
2022-09-03T09:53:40.090Z,63.86
2022-09-03T09:56:08.408Z,64.94
2022-09-03T09:58:36.591Z,65.79
2022-09-03T10:01:13.720Z,65.30
2022-09-03T10:03:57.978Z,65.30
2022-09-03T10:06:50.140Z,64.99
2022-09-03T10:09:20.294Z,65.42
2022-09-03T10:12:19.912Z,62.93
2022-09-03T10:14:47.929Z,63.39
2022-09-03T10:17:46.843Z,64.30
2022-09-03T10:20:44.712Z,64.46
2022-09-03T10:23:18.759Z,64.44
2022-09-03T10:26:10.028Z,65.60
2022-09-03T10:28:42.686Z,66.07
2022-09-03T10:31:16.438Z,64.83
2022-09-03T10:34:09.989Z,65.50
2022-09-03T10:36:40.991Z,65.21
2022-09-03T10:39:21.467Z,64.60
2022-09-03T10:42:14.013Z,63.47
2022-09-03T10:45:10.890Z,63.66
2022-09-03T10:48:07.746Z,63.50
2022-09-03T10:50:51.343Z,65.02
2022-09-03T10:53:50.427Z,64.74
2022-09-03T10:56:33.810Z,63.64
2022-09-03T10:59:29.270Z,62.65
2022-09-03T11:02:22.065Z,63.13
2022-09-03T11:05:01.439Z,64.23
2022-09-03T11:07:58.825Z,63.47
2022-09-03T11:10:30.806Z,63.67
2022-09-03T11:13:11.034Z,63.67
2022-09-03T11:15:56.875Z,63.48
2022-09-03T11:18:35.138Z,62.61
2022-09-03T11:21:10.123Z,63.50
2022-09-03T11:23:44.762Z,62.91
2022-09-03T11:26:15.989Z,62.80
2022-09-03T11:28:58.247Z,62.84
2022-09-03T11:31:49.253Z,62.94
2022-09-03T11:34:33.437Z,62.32
2022-09-03T11:37:21.479Z,61.82
2022-09-03T11:40:17.640Z,61.82
2022-09-03T11:42:46.122Z,62.81
2022-09-03T11:45:25.512Z,63.37
2022-09-03T11:47:54.535Z,62.33
2022-09-03T11:50:27.390Z,63.52
2022-09-03T11:53:10.977Z,63.63
2022-09-03T11:55:47.589Z,63.96
2022-09-03T11:58:31.357Z,63.98
2022-09-03T12:00:59.322Z,63.06
2022-09-03T12:04:00.274Z,62.28
2022-09-03T12:06:33.594Z,63.07
2022-09-03T12:09:28.801Z,63.03
2022-09-03T12:12:01.024Z,63.42
2022-09-03T12:14:47.332Z,63.62
2022-09-03T12:17:14.479Z,63.43
2022-09-03T12:19:51.568Z,63.56
2022-09-03T12:22:20.708Z,63.86
2022-09-03T12:24:48.385Z,63.50
2022-09-03T12:27:22.882Z,63.82
2022-09-03T12:29:58.201Z,63.98
2022-09-03T12:32:27.027Z,64.39
2022-09-03T12:34:54.987Z,63.08
2022-09-03T12:40:32.926Z,64.22
2022-09-03T12:46:10.694Z,63.52
2022-09-03T12:48:40.502Z,63.85
2022-09-03T12:53:59.199Z,64.68
2022-09-03T12:56:29.206Z,64.94
2022-09-03T12:59:10.045Z,63.89
2022-09-03T13:01:49.645Z,64.14
2022-09-03T13:04:27.161Z,64.48
2022-09-03T13:07:01.310Z,64.29
2022-09-03T13:09:30.598Z,64.34
2022-09-03T13:11:59.436Z,64.09
2022-09-03T13:14:27.655Z,63.44
2022-09-03T13:17:11.489Z,63.71
2022-09-03T13:19:50.967Z,63.99
2022-09-03T13:22:39.289Z,63.72
2022-09-03T13:25:30.600Z,64.90
2022-09-03T13:28:42.917Z,64.47
2022-09-03T13:31:26.149Z,65.20
2022-09-03T13:34:05.749Z,64.49
2022-09-03T13:36:45.809Z,65.03
2022-09-03T13:39:47.942Z,64.59
2022-09-03T13:42:27.696Z,65.46
2022-09-03T13:45:06.940Z,65.98
2022-09-03T13:48:41.420Z,65.44
2022-09-03T13:51:37.810Z,66.18
2022-09-03T13:54:48.245Z,66.71
2022-09-03T13:57:32.894Z,67.08
2022-09-03T14:00:10.905Z,66.77
2022-09-03T14:02:53.872Z,66.76
2022-09-03T14:05:59.162Z,67.16
2022-09-03T14:08:55.382Z,67.39
2022-09-03T14:12:01.360Z,67.74
2022-09-03T14:14:31.538Z,66.67
2022-09-03T14:17:11.729Z,65.91
2022-09-03T14:20:00.867Z,66.54
2022-09-03T14:22:56.933Z,66.38
2022-09-03T14:25:29.287Z,65.29
2022-09-03T14:28:14.140Z,65.61
2022-09-03T14:30:55.984Z,65.56
2022-09-03T14:33:28.959Z,65.31
2022-09-03T14:36:03.278Z,66.21
2022-09-03T14:39:16.348Z,67.87
2022-09-03T14:42:02.253Z,67.63
2022-09-03T14:44:44.386Z,68.89
2022-09-03T14:47:43.489Z,69.76
2022-09-03T14:50:55.088Z,69.15
2022-09-03T14:53:50.099Z,68.17
2022-09-03T14:56:49.786Z,68.21
2022-09-03T14:59:55.458Z,69.21
2022-09-03T15:02:28.950Z,69.84
2022-09-03T15:05:01.940Z,69.15
2022-09-03T15:07:47.821Z,70.07
2022-09-03T15:10:21.014Z,70.21
2022-09-03T15:13:14.635Z,70.87
2022-09-03T15:15:52.530Z,69.98
2022-09-03T15:18:38.556Z,70.02
2022-09-03T15:21:14.985Z,69.46
2022-09-03T15:23:52.073Z,69.63
2022-09-03T15:26:40.485Z,70.47
2022-09-03T15:29:37.033Z,70.32
2022-09-03T15:32:10.292Z,70.80
2022-09-03T15:34:55.263Z,70.97
2022-09-03T15:37:59.888Z,71.06
2022-09-03T15:40:50.712Z,71.11
2022-09-03T15:43:22.150Z,70.65
2022-09-03T15:45:57.924Z,70.32
2022-09-03T15:48:40.444Z,70.80
2022-09-03T15:51:17.840Z,71.28
2022-09-03T15:53:53.005Z,70.91
2022-09-03T15:56:28.247Z,71.33
2022-09-03T15:59:21.386Z,71.21
2022-09-03T16:01:55.453Z,71.11
2022-09-03T16:04:50.872Z,71.34
2022-09-03T16:07:39.921Z,71.62
2022-09-03T16:10:25.373Z,71.57
2022-09-03T16:13:07.003Z,71.88
2022-09-03T16:15:45.903Z,71.77
2022-09-03T16:18:37.651Z,71.82
2022-09-03T16:21:23.158Z,71.73
2022-09-03T16:24:26.099Z,71.48
2022-09-03T16:27:11.546Z,71.34
2022-09-03T16:29:39.640Z,71.56
2022-09-03T16:32:27.246Z,71.65
2022-09-03T16:35:26.665Z,71.33
2022-09-03T16:38:15.736Z,71.64
2022-09-03T16:41:04.872Z,72.13
2022-09-03T16:43:43.144Z,72.50
2022-09-03T16:46:24.168Z,72.44
2022-09-03T16:49:01.387Z,72.91
2022-09-03T16:51:44.914Z,72.52
2022-09-03T16:54:31.085Z,73.09
2022-09-03T16:57:40.530Z,73.30
2022-09-03T17:00:22.067Z,74.17
2022-09-03T17:03:04.783Z,74.50
2022-09-03T17:06:09.666Z,74.52
2022-09-03T17:09:00.704Z,74.49
2022-09-03T17:12:10.965Z,74.74
2022-09-03T17:14:50.678Z,75.34
2022-09-03T17:17:20.921Z,75.58
2022-09-03T17:20:09.363Z,75.86
2022-09-03T17:23:02.021Z,75.94
2022-09-03T17:25:52.076Z,76.23
2022-09-03T17:28:41.401Z,76.70
2022-09-03T17:31:18.214Z,76.84
2022-09-03T17:34:23.594Z,77.42
2022-09-03T17:37:33.034Z,77.27
2022-09-03T17:40:30.937Z,77.45
2022-09-03T17:43:04.063Z,77.25
2022-09-03T17:46:08.796Z,77.24
2022-09-03T17:48:50.690Z,76.58
2022-09-03T17:51:46.647Z,76.78
2022-09-03T17:54:44.638Z,76.56
2022-09-03T17:57:39.503Z,77.24
2022-09-03T18:00:26.141Z,77.31
2022-09-03T18:03:07.453Z,77.66
2022-09-03T18:05:53.863Z,77.45
2022-09-03T18:08:20.982Z,76.77
2022-09-03T18:11:07.509Z,75.99
2022-09-03T18:13:50.705Z,75.41
2022-09-03T18:16:33.390Z,75.45
2022-09-03T18:19:29.483Z,75.55
2022-09-03T18:22:20.973Z,76.08
2022-09-03T18:25:17.950Z,75.88
2022-09-03T18:28:12.877Z,76.16
2022-09-03T18:30:58.740Z,75.94
2022-09-03T18:33:46.067Z,76.14
2022-09-03T18:36:39.371Z,75.80
2022-09-03T18:39:34.017Z,76.12
2022-09-03T18:42:50.882Z,75.54
2022-09-03T18:49:18.635Z,75.30
2022-09-03T18:52:25.070Z,75.32
2022-09-03T18:55:13.918Z,75.05
2022-09-03T18:58:17.362Z,74.47
2022-09-03T19:01:38.743Z,74.71
2022-09-03T19:05:02.399Z,74.81
2022-09-03T19:08:07.387Z,74.86
2022-09-03T19:11:08.180Z,74.51
2022-09-03T19:13:57.405Z,74.74
2022-09-03T19:17:05.239Z,74.91
2022-09-03T19:20:14.755Z,74.47
2022-09-03T19:23:01.134Z,74.17
2022-09-03T19:25:48.734Z,73.77
2022-09-03T19:28:48.413Z,74.09
2022-09-03T19:32:16.036Z,73.99
2022-09-03T19:35:16.983Z,74.08
2022-09-03T19:38:31.899Z,73.49
2022-09-03T19:41:45.933Z,73.41
2022-09-03T19:44:50.258Z,73.28
2022-09-03T19:47:51.285Z,73.25
2022-09-03T19:50:42.076Z,72.93
2022-09-03T19:53:37.748Z,72.40
2022-09-03T19:56:47.752Z,72.55
2022-09-03T19:59:44.519Z,72.23
2022-09-03T20:02:30.151Z,72.65
2022-09-03T20:05:19.365Z,72.63
2022-09-03T20:08:09.084Z,72.61
2022-09-03T20:10:37.635Z,72.30
2022-09-03T20:13:16.455Z,72.85
2022-09-03T20:15:51.322Z,72.25
2022-09-03T20:18:37.176Z,72.09
2022-09-03T20:21:18.889Z,71.77
2022-09-03T20:24:04.489Z,71.56
2022-09-03T20:27:05.446Z,71.63
2022-09-03T20:29:51.057Z,71.40
2022-09-03T20:32:33.421Z,71.03
2022-09-03T20:35:03.681Z,70.95
2022-09-03T20:38:09.926Z,70.89
2022-09-03T20:40:53.167Z,70.83
2022-09-03T20:44:09.532Z,71.04
2022-09-03T20:46:48.637Z,70.54
2022-09-03T20:49:53.947Z,70.23
2022-09-03T20:52:33.038Z,70.26
2022-09-03T20:55:20.253Z,70.01
2022-09-03T20:58:01.388Z,70.38
2022-09-03T21:00:45.378Z,70.03
2022-09-03T21:03:22.092Z,70.33
2022-09-03T21:05:58.512Z,70.57
2022-09-03T21:08:38.174Z,70.69
2022-09-03T21:11:14.682Z,70.63
2022-09-03T21:14:17.336Z,70.34
2022-09-03T21:16:56.667Z,71.75
2022-09-03T21:19:48.037Z,71.80
2022-09-03T21:22:42.453Z,72.02
2022-09-03T21:25:33.935Z,71.83
2022-09-03T21:28:08.486Z,72.07
2022-09-03T21:30:40.954Z,72.29
2022-09-03T21:33:23.625Z,72.67
2022-09-03T21:35:59.642Z,72.95
2022-09-03T21:38:34.862Z,73.18
2022-09-03T21:41:12.999Z,73.09
2022-09-03T21:43:48.573Z,73.85
2022-09-03T21:46:15.835Z,73.61
2022-09-03T21:48:58.639Z,72.57
2022-09-03T21:51:33.757Z,71.56
2022-09-03T21:54:13.366Z,70.54
2022-09-03T21:57:05.394Z,70.50
2022-09-03T22:00:09.217Z,70.50
2022-09-03T22:02:42.240Z,69.82
2022-09-03T22:05:09.847Z,69.94
2022-09-03T22:07:56.030Z,70.05
2022-09-03T22:10:48.978Z,69.82
2022-09-03T22:13:44.488Z,69.65
2022-09-03T22:16:32.333Z,69.59
2022-09-03T22:18:59.770Z,69.42
2022-09-03T22:21:36.546Z,69.54
2022-09-03T22:24:07.631Z,68.90
2022-09-03T22:26:53.165Z,69.12
2022-09-03T22:29:51.339Z,69.08
2022-09-03T22:32:33.912Z,69.33
2022-09-03T22:35:06.989Z,69.27
2022-09-03T22:37:34.171Z,68.97
2022-09-03T22:40:42.062Z,69.26
2022-09-03T22:43:42.552Z,69.13
2022-09-03T22:46:16.614Z,69.14
2022-09-03T22:49:01.862Z,68.84
2022-09-03T22:51:37.243Z,68.88
2022-09-03T22:54:19.698Z,68.84
2022-09-03T22:56:47.080Z,69.25
2022-09-03T22:59:56.223Z,68.78
2022-09-03T23:02:27.837Z,68.87
2022-09-03T23:05:08.952Z,69.11
2022-09-03T23:08:09.714Z,68.87
2022-09-03T23:10:45.230Z,69.60
2022-09-03T23:13:19.991Z,69.29
2022-09-03T23:15:56.220Z,69.79
2022-09-03T23:18:27.345Z,70.08
2022-09-03T23:21:12.261Z,71.02
2022-09-03T23:24:09.643Z,71.99
2022-09-03T23:26:43.025Z,72.94
2022-09-03T23:29:43.505Z,73.48
2022-09-03T23:32:10.884Z,74.17
2022-09-03T23:34:40.835Z,75.00
2022-09-03T23:37:33.199Z,75.12
2022-09-03T23:40:15.925Z,75.61
2022-09-03T23:43:03.649Z,75.68
2022-09-03T23:46:00.602Z,76.33
2022-09-03T23:48:36.891Z,76.85
2022-09-03T23:51:23.828Z,76.98
2022-09-03T23:53:51.049Z,77.35
2022-09-03T23:56:26.949Z,77.45
2022-09-03T23:59:30.079Z,77.88
